< < Back
Terminal Aerodrome Forecast


Current Version              Previous Versions:   1  2  3  4  5  6  7  8  9  

Terminal Aerodrome Forecast

702
FTUS42 KMLB 200500
TAFDAB
TAF
KDAB 200530Z 2006/2106 00000KT P6SM SCT250
      TEMPO 2009/2013 5SM BR FEW250
     FM201500 18004KT P6SM FEW100 SCT250
     FM201900 09006KT P6SM SCT100 BKN250=

Latest METAR

136
SAUS80 KWBC 200600 RRD
MTRDAB
METAR KDAB 200553Z 00000KT 8SM SCT140 SCT250 12/11 A3008 RMK AO2 SLP183
T01220111 10161 20111 58010


USA.gov is the U.S. government's official web portal to all federal, state and local government web resources and services.